Valparaiso, IN (46385)

8:31 PM CDT on August 27, 2015 (GMT -0500)
APRSWXNET | | Change Station
CLOSE
Current Station
Personal Weather Station
Location: Valparaiso, IN
Elevation: 698 ft
Nearby Weather Stations

Elev 698 ft 41.42 °N, 87.15 °W | Updated 22 minutes ago

Clear
Clear
61 °F
Feels Like 61 °F
N
0
Wind Variable Wind from NE
Gusts 0.0 mph

Today
High -- | Low -- °F
--% Chance of Precip.
Yesterday
High -- | Low -- °F
Precip. -- in
6:09 AM 7:30 PM
Waxing Gibbous, 96% visible
Pressure 30.13 in
Visibility 10.0 miles
Clouds Clear
Dew Point 54 °F
Humidity 79%
Rainfall in
Snow Depth Not available.
UV 0 out of 12
Pollen 9.70 out of 12
Air Quality Not available.
Flu Activity Not available.
METAR KVPZ 280056Z AUTO 04004KT 10SM CLR 17/14 A3013 RMK AO2 SLP203 T01670144 TSNO
Pressure 30.13 in
Visibility 10.0 miles
Clouds Clear
Dew Point 54 °F
Humidity 79%
Rainfall in
Snow Depth Not available.
UV 0 out of 12
Pollen 9.70 out of 12
Air Quality Not available.
Flu Activity Not available.
METAR KVPZ 280056Z AUTO 04004KT 10SM CLR 17/14 A3013 RMK AO2 SLP203 T01670144 TSNO

10-Day Weather Forecast

×

Almanac

Astronomy

Aug. 27, 2015 Rise Set
Actual Time
Civil Twilight
Nautical Twilight
Astronomical Twilight
Moon
Length of Visible Light
Length of Day
Tomorrow will be .
, % of the Moon is Illuminated

Today's Extremes

State Highs State Lows

Community

WunderPhotos

Upload Photos

1,850,297 photos uploaded!

WunderBlogs® & News

Nearby

Air Quality

  Air Quality AQ Index Pollutant
Not available.

Snow Depth

Station Depth Elevation

Earthquake Activity

City Distance Mag. Time & Date
Minimum magnitude displayed is 2.5.

Coastal Water Temperatures

Place Temperature

Stations

Nearby Weather Stations

Station Location Temp. Windchill Dew Point Humidity Wind Precip. Elev Updated Type